Time;durP1;ratioP1;P1;durP2;ratioP2;P2;SDS_P1;SDS_P2;PMS_P1;PMS_P2;Temp;Humidity;BMP_temperature;BMP_pressure;BME280_temperature;BME280_humidity;BME280_pressure;Samples;Min_cycle;Max_cycle;Signal;HPM_P1;HPM_P2
2022/01/20 00:02:09;;;;;;;7.90;0.70;;;4.10;99.90;;;;;;5072238;28;20080;-83
2022/01/20 00:28:27;;;;;;;7.95;1.00;;;4.20;99.90;;;;;;5010421;28;20149;-84
2022/01/20 00:33:40;;;;;;;4.35;0.60;;;4.40;99.90;;;;;;5009904;28;20125;-84
2022/01/20 00:38:32;;;;;;;8.75;0.95;;;4.20;99.90;;;;;;4994591;28;20495;-78
2022/01/20 00:40:57;;;;;;;4.28;0.65;;;4.20;99.90;;;;;;5009997;28;20107;-79
2022/01/20 00:43:23;;;;;;;7.65;0.60;;;4.10;99.90;;;;;;5010007;28;20053;-79
2022/01/20 00:45:49;;;;;;;3.65;0.40;;;4.10;99.90;;;;;;5010734;28;20037;-80
2022/01/20 00:48:15;;;;;;;3.17;0.40;;;4.10;99.90;;;;;;5010488;28;20049;-82
2022/01/20 00:50:41;;;;;;;2.90;0.47;;;4.00;99.90;;;;;;5014481;28;20041;-80
2022/01/20 00:53:07;;;;;;;6.13;0.60;;;4.00;99.90;;;;;;5013840;28;20069;-79
2022/01/20 00:55:33;;;;;;;3.95;0.75;;;4.10;99.90;;;;;;4993125;28;21240;-84
2022/01/20 00:57:58;;;;;;;7.47;0.80;;;4.00;99.90;;;;;;5010308;28;20045;-84
2022/01/20 01:00:24;;;;;;;14.93;1.02;;;4.10;99.90;;;;;;5014060;28;20092;-79
2022/01/20 01:02:50;;;;;;;13.77;1.23;;;4.40;99.90;;;;;;5069747;28;20095;-82
2022/01/20 01:05:16;;;;;;;6.75;0.68;;;4.50;99.90;;;;;;5053992;28;20076;-82
2022/01/20 01:10:13;;;;;;;7.55;0.60;;;4.00;99.90;;;;;;5070502;28;20512;-82
2022/01/20 01:12:49;;;;;;;6.45;0.43;;;4.10;99.90;;;;;;5060158;28;20564;-81
2022/01/20 01:15:29;;;;;;;4.10;0.80;;;4.00;99.90;;;;;;5071384;28;20051;-83
2022/01/20 01:23:37;;;;;;;6.60;0.60;;;4.40;99.90;;;;;;5065568;28;20059;-83
2022/01/20 01:26:08;;;;;;;3.63;0.55;;;3.80;99.90;;;;;;5070673;28;20115;-86
2022/01/20 01:28:35;;;;;;;6.45;1.00;;;3.80;99.90;;;;;;5071621;28;20064;-83
2022/01/20 01:34:03;;;;;;;9.95;0.80;;;3.70;99.90;;;;;;4979191;28;20053;-85
2022/01/20 01:36:39;;;;;;;7.25;0.60;;;3.80;99.90;;;;;;4965338;28;20057;-85
2022/01/20 01:39:04;;;;;;;;;;;3.80;99.90;;;;;;4986215;28;20129;-85
2022/01/20 01:41:34;;;;;;;9.50;0.85;;;3.90;99.90;;;;;;4987053;28;20008;-83
2022/01/20 01:44:05;;;;;;;5.40;1.02;;;4.10;99.90;;;;;;5004546;28;20053;-80
2022/01/20 01:46:31;;;;;;;10.55;0.88;;;3.90;99.90;;;;;;4986728;28;20042;-82
2022/01/20 01:48:57;;;;;;;8.60;0.70;;;4.10;99.90;;;;;;4985755;28;20503;-83
2022/01/20 01:51:23;;;;;;;7.70;0.80;;;4.30;99.90;;;;;;5001500;28;20104;-79
2022/01/20 01:53:49;;;;;;;9.20;0.82;;;4.40;99.90;;;;;;4986840;28;20559;-81
2022/01/20 01:56:14;;;;;;;9.45;2.35;;;4.30;99.90;;;;;;4997567;28;20093;-80
2022/01/20 01:58:40;;;;;;;18.23;1.60;;;4.20;99.90;;;;;;5004789;28;20046;-83
2022/01/20 02:01:06;;;;;;;13.75;0.98;;;4.10;99.90;;;;;;5004887;28;20042;-84
2022/01/20 02:03:41;;;;;;;11.43;1.30;;;4.10;99.90;;;;;;5001523;28;20050;-84
2022/01/20 02:09:09;;;;;;;9.23;1.02;;;4.30;99.90;;;;;;5014251;28;20469;-82
2022/01/20 02:19:54;;;;;;;9.77;1.13;;;3.80;99.90;;;;;;5062965;28;20049;-87
2022/01/20 02:22:19;;;;;;;12.93;1.15;;;3.90;99.90;;;;;;5058856;28;20091;-87
2022/01/20 02:24:45;;;;;;;6.63;1.23;;;4.00;99.90;;;;;;5064108;28;20044;-86
2022/01/20 02:27:11;;;;;;;15.32;2.38;;;4.10;99.90;;;;;;5059797;28;20116;-87
2022/01/20 02:29:37;;;;;;;9.68;1.08;;;4.10;99.90;;;;;;5062392;28;20119;-86
2022/01/20 02:32:03;;;;;;;12.63;1.38;;;4.00;99.90;;;;;;5054243;28;20072;-86
2022/01/20 02:34:30;;;;;;;11.13;1.48;;;4.00;99.90;;;;;;5073966;28;20082;-87
2022/01/20 02:36:58;;;;;;;23.08;2.40;;;4.00;99.90;;;;;;5073284;28;20052;-85
2022/01/20 02:39:47;;;;;;;15.60;1.65;;;4.10;99.90;;;;;;5074111;28;20048;-87
2022/01/20 02:45:03;;;;;;;19.92;1.50;;;4.20;99.90;;;;;;5055788;28;20077;-87
2022/01/20 02:47:31;;;;;;;21.15;1.88;;;4.30;99.90;;;;;;5073756;28;20036;-86
2022/01/20 02:49:58;;;;;;;14.32;2.20;;;4.40;99.90;;;;;;5072581;28;20032;-87
2022/01/20 02:52:24;;;;;;;14.52;2.33;;;4.30;99.90;;;;;;5072917;28;20456;-84
2022/01/20 02:54:51;;;;;;;7.72;1.48;;;4.30;99.90;;;;;;5055777;28;20097;-85
2022/01/20 02:57:17;;;;;;;6.90;1.30;;;4.30;99.90;;;;;;5072413;28;20473;-87
2022/01/20 02:59:43;;;;;;;13.30;0.98;;;4.20;99.90;;;;;;5062264;28;20041;-86
2022/01/20 03:02:09;;;;;;;11.95;1.30;;;4.10;99.90;;;;;;5073625;28;20029;-87
2022/01/20 03:04:38;;;;;;;12.60;1.48;;;4.00;99.90;;;;;;5072865;28;20452;-84
2022/01/20 03:07:05;;;;;;;14.82;1.92;;;4.00;99.90;;;;;;5067961;28;20069;-86
2022/01/20 03:09:31;;;;;;;15.93;1.83;;;3.90;99.90;;;;;;5072681;28;20048;-87
2022/01/20 03:11:58;;;;;;;16.55;2.72;;;3.70;99.90;;;;;;5054179;28;20566;-87
2022/01/20 03:14:23;;;;;;;13.10;2.08;;;3.70;99.90;;;;;;5073035;28;20127;-86
2022/01/20 03:16:50;;;;;;;13.23;1.25;;;3.70;99.90;;;;;;5054828;28;20075;-86
2022/01/20 03:19:17;;;;;;;12.40;1.80;;;4.40;99.90;;;;;;5073262;28;20048;-87
2022/01/20 03:21:44;;;;;;;17.58;3.13;;;3.70;99.90;;;;;;5072666;28;20044;-86
2022/01/20 03:24:10;;;;;;;15.32;2.35;;;3.80;99.90;;;;;;5073040;28;20048;-87
2022/01/20 03:26:36;;;;;;;22.30;1.85;;;3.80;99.90;;;;;;5054605;28;20040;-87
2022/01/20 03:29:03;;;;;;;11.05;1.35;;;4.00;99.90;;;;;;5042418;28;20061;-87
2022/01/20 03:31:30;;;;;;;8.75;2.13;;;4.10;99.90;;;;;;5056470;28;20116;-87
2022/01/20 03:33:57;;;;;;;10.77;0.88;;;4.20;99.90;;;;;;5028022;28;20037;-86
2022/01/20 03:36:22;;;;;;;13.70;1.55;;;4.30;99.90;;;;;;5072836;28;20044;-85
2022/01/20 03:38:48;;;;;;;18.05;1.00;;;4.20;99.90;;;;;;5072780;28;20111;-87
2022/01/20 03:41:14;;;;;;;3.42;0.75;;;4.20;99.90;;;;;;5072132;28;20488;-82
2022/01/20 03:43:39;;;;;;;5.82;0.77;;;4.30;99.90;;;;;;5071504;28;20484;-80
2022/01/20 03:46:11;;;;;;;10.20;1.67;;;5.00;99.90;;;;;;5054490;28;20095;-81
2022/01/20 03:48:48;;;;;;;10.48;1.60;;;4.20;99.90;;;;;;5072805;28;20037;-79
2022/01/20 03:51:15;;;;;;;7.32;0.90;;;4.60;99.90;;;;;;5065106;28;20131;-84
2022/01/20 03:53:40;;;;;;;7.90;1.02;;;4.50;99.90;;;;;;5018359;28;20076;-81
2022/01/20 03:56:07;;;;;;;9.30;1.10;;;4.30;99.90;;;;;;5061590;28;20083;-80
2022/01/20 03:58:32;;;;;;;6.90;1.00;;;4.10;99.90;;;;;;5063816;28;20041;-81
2022/01/20 04:00:58;;;;;;;7.47;0.95;;;4.10;99.90;;;;;;5061931;28;20090;-81
2022/01/20 04:03:24;;;;;;;8.13;1.20;;;4.10;99.90;;;;;;5061248;28;20094;-80
2022/01/20 04:08:16;;;;;;;8.23;1.05;;;4.10;99.90;;;;;;5045465;28;20083;-80
2022/01/20 04:10:41;;;;;;;11.25;1.25;;;4.00;99.90;;;;;;5071852;28;20508;-79
2022/01/20 04:13:09;;;;;;;9.13;1.40;;;4.20;99.90;;;;;;5054163;28;20047;-81
2022/01/20 04:15:38;;;;;;;8.70;0.80;;;4.30;99.90;;;;;;5070450;28;20041;-79
2022/01/20 04:18:06;;;;;;;12.20;1.33;;;4.20;99.90;;;;;;5071928;28;20141;-82
2022/01/20 04:20:32;;;;;;;6.43;1.10;;;4.20;99.90;;;;;;5071588;28;20049;-85
2022/01/20 04:22:57;;;;;;;11.75;1.27;;;4.70;99.90;;;;;;5054261;28;20051;-85
2022/01/20 04:25:23;;;;;;;7.85;1.15;;;4.40;99.90;;;;;;5071214;28;20052;-80
2022/01/20 04:27:49;;;;;;;11.23;1.38;;;4.30;99.90;;;;;;5052936;28;20063;-83
2022/01/20 04:30:14;;;;;;;16.83;2.55;;;4.50;99.90;;;;;;5047651;28;20404;-84
2022/01/20 04:32:40;;;;;;;12.35;1.48;;;4.60;99.90;;;;;;5062794;28;20048;-82
2022/01/20 04:35:06;;;;;;;12.98;1.38;;;4.60;99.90;;;;;;5071339;28;20068;-84
2022/01/20 04:37:31;;;;;;;7.43;1.70;;;4.50;99.90;;;;;;5051088;28;20056;-85
2022/01/20 04:39:59;;;;;;;9.02;1.20;;;4.40;99.90;;;;;;5071074;28;20033;-81
2022/01/20 04:42:27;;;;;;;8.38;1.10;;;4.20;99.90;;;;;;5071387;28;20047;-82
2022/01/20 04:44:58;;;;;;;10.52;1.20;;;4.00;99.90;;;;;;5053501;28;20054;-81
2022/01/20 04:58:03;;;;;;;8.88;1.13;;;3.90;99.90;;;;;;5044744;28;20040;-88
2022/01/20 05:00:30;;;;;;;7.78;1.85;;;3.80;99.90;;;;;;5053125;28;20040;-81
2022/01/20 05:02:55;;;;;;;12.80;1.45;;;3.90;99.90;;;;;;5069016;28;20087;-87
2022/01/20 05:05:21;;;;;;;9.15;1.10;;;3.90;99.90;;;;;;5053543;28;20484;-86
2022/01/20 05:07:47;;;;;;;10.90;1.58;;;4.70;99.90;;;;;;5053272;28;20049;-86
2022/01/20 05:10:14;;;;;;;10.73;1.25;;;4.00;99.90;;;;;;5071408;28;20114;-87
2022/01/20 05:13:04;;;;;;;7.97;0.85;;;3.90;99.90;;;;;;5073585;28;20025;-85
2022/01/20 05:15:32;;;;;;;9.73;0.93;;;3.80;99.90;;;;;;5045010;28;20488;-86
2022/01/20 05:17:58;;;;;;;6.45;1.00;;;3.70;99.90;;;;;;5073943;28;20037;-86
2022/01/20 05:20:23;;;;;;;4.55;0.82;;;3.50;99.90;;;;;;5051758;28;20055;-83
2022/01/20 05:22:49;;;;;;;7.53;0.93;;;3.40;99.90;;;;;;5075412;28;20497;-85
2022/01/20 05:25:15;;;;;;;10.38;1.27;;;3.40;99.90;;;;;;5075361;28;20041;-86
2022/01/20 05:27:40;;;;;;;5.97;0.77;;;3.50;99.90;;;;;;5050577;28;20499;-86
2022/01/20 05:30:07;;;;;;;5.70;0.80;;;3.50;99.90;;;;;;5058581;28;20122;-86
2022/01/20 05:32:33;;;;;;;13.73;1.60;;;3.40;99.90;;;;;;5059695;28;20087;-85
2022/01/20 05:34:59;;;;;;;8.65;1.10;;;3.50;99.90;;;;;;5041991;28;20080;-85
2022/01/20 05:37:24;;;;;;;9.00;0.95;;;3.50;99.90;;;;;;5074650;28;20040;-83
2022/01/20 05:39:50;;;;;;;6.07;0.88;;;3.40;99.90;;;;;;5074563;28;20473;-86
2022/01/20 05:42:16;;;;;;;6.05;1.10;;;3.20;99.90;;;;;;5066135;28;20040;-86
2022/01/20 05:44:43;;;;;;;7.72;1.52;;;3.30;99.90;;;;;;5074705;28;20490;-79
2022/01/20 05:47:12;;;;;;;6.10;1.05;;;3.20;99.90;;;;;;5074273;28;20037;-83
2022/01/20 05:49:38;;;;;;;11.20;1.02;;;3.40;99.90;;;;;;5069502;28;20045;-83
2022/01/20 05:52:04;;;;;;;11.52;1.00;;;3.40;99.90;;;;;;5041768;28;20044;-79
2022/01/20 05:54:30;;;;;;;12.93;1.35;;;3.40;99.90;;;;;;5074824;28;20052;-79
2022/01/20 05:56:55;;;;;;;7.47;1.45;;;3.80;99.90;;;;;;5051650;28;20070;-83
2022/01/20 05:59:21;;;;;;;12.02;1.25;;;3.50;99.90;;;;;;5034575;28;20405;-82
2022/01/20 06:01:53;;;;;;;14.02;1.42;;;3.60;99.90;;;;;;5064849;28;20056;-79
2022/01/20 06:04:19;;;;;;;12.00;1.42;;;3.80;99.90;;;;;;5073679;28;20049;-83
2022/01/20 06:06:45;;;;;;;8.57;1.25;;;3.70;99.90;;;;;;5074253;28;20507;-85
2022/01/20 06:09:10;;;;;;;11.05;1.60;;;3.90;99.90;;;;;;5056105;28;20040;-81
2022/01/20 06:11:36;;;;;;;12.45;1.33;;;3.80;99.90;;;;;;5074117;28;20063;-80
2022/01/20 06:14:03;;;;;;;8.23;1.20;;;4.10;99.90;;;;;;5074186;28;20051;-79
2022/01/20 06:16:30;;;;;;;21.23;1.42;;;3.90;99.90;;;;;;5073559;28;20048;-79
2022/01/20 06:18:55;;;;;;;11.48;0.93;;;3.90;99.90;;;;;;5073688;28;20041;-78
2022/01/20 06:21:21;;;;;;;8.43;0.70;;;3.90;99.90;;;;;;5065882;28;20037;-80
2022/01/20 06:23:47;;;;;;;4.53;0.70;;;3.90;99.90;;;;;;5069111;28;20033;-83
2022/01/20 06:26:13;;;;;;;13.80;1.70;;;3.90;99.90;;;;;;5074063;28;20043;-80
2022/01/20 06:28:40;;;;;;;8.57;0.98;;;3.90;99.90;;;;;;5068736;28;20049;-83
2022/01/20 06:31:06;;;;;;;14.70;2.05;;;3.90;99.90;;;;;;5073919;28;20091;-86
2022/01/20 06:33:32;;;;;;;16.88;2.38;;;4.00;99.90;;;;;;5054457;28;20049;-86
2022/01/20 06:35:58;;;;;;;13.45;1.45;;;4.00;99.90;;;;;;5053394;28;20048;-84
2022/01/20 06:38:25;;;;;;;13.52;1.33;;;4.10;99.90;;;;;;5070584;28;20045;-84
2022/01/20 06:40:51;;;;;;;7.80;0.85;;;4.00;99.90;;;;;;5073954;28;20032;-85
2022/01/20 06:43:17;;;;;;;9.93;1.90;;;3.90;99.90;;;;;;5073477;28;20136;-86
2022/01/20 06:45:43;;;;;;;8.77;1.77;;;3.90;99.90;;;;;;5073947;28;20404;-84
2022/01/20 06:48:08;;;;;;;10.73;1.10;;;3.80;99.90;;;;;;5057338;28;20127;-86
2022/01/20 06:50:34;;;;;;;7.72;1.02;;;3.80;99.90;;;;;;5073299;28;20037;-85
2022/01/20 06:53:00;;;;;;;10.30;1.10;;;3.70;99.90;;;;;;5073274;28;20043;-86
2022/01/20 06:55:26;;;;;;;10.40;1.10;;;3.70;99.90;;;;;;5073136;28;20037;-86
2022/01/20 06:57:51;;;;;;;7.05;0.85;;;3.60;99.90;;;;;;5068076;28;20045;-86
2022/01/20 07:00:21;;;;;;;8.60;1.13;;;3.50;99.90;;;;;;5066184;28;20033;-87
2022/01/20 07:02:47;;;;;;;10.85;1.00;;;3.40;99.90;;;;;;5069045;28;20037;-87
2022/01/20 07:05:15;;;;;;;10.07;1.55;;;3.30;99.90;;;;;;5067038;28;20041;-86
2022/01/20 07:07:41;;;;;;;5.97;0.93;;;3.20;99.90;;;;;;5061051;28;20760;-86
2022/01/20 07:10:09;;;;;;;7.53;1.02;;;3.30;99.90;;;;;;5073042;28;20066;-86
2022/01/20 07:12:34;;;;;;;12.63;1.63;;;3.30;99.90;;;;;;5050037;28;20044;-85
2022/01/20 07:15:00;;;;;;;18.88;1.42;;;3.40;99.90;;;;;;5066910;28;20033;-86
2022/01/20 07:17:26;;;;;;;16.23;1.58;;;4.30;99.90;;;;;;5068815;28;20126;-86
2022/01/20 07:19:52;;;;;;;17.33;1.30;;;3.80;99.90;;;;;;5072765;28;20040;-86
2022/01/20 07:22:17;;;;;;;17.02;1.33;;;3.70;99.90;;;;;;5072296;28;20043;-85
2022/01/20 07:24:43;;;;;;;8.90;0.80;;;3.80;99.90;;;;;;5045100;28;20080;-86
2022/01/20 07:27:09;;;;;;;8.13;1.33;;;3.90;99.90;;;;;;5061727;28;20045;-87
2022/01/20 07:29:35;;;;;;;9.27;0.77;;;3.60;99.90;;;;;;5047661;28;20057;-85
2022/01/20 07:32:03;;;;;;;11.60;1.40;;;3.50;99.90;;;;;;5063603;28;20401;-86
2022/01/20 07:34:29;;;;;;;11.65;0.93;;;3.40;99.90;;;;;;5069659;28;20052;-84
2022/01/20 07:36:55;;;;;;;10.77;1.75;;;3.40;99.90;;;;;;5059838;28;20045;-85
2022/01/20 07:39:21;;;;;;;7.20;0.85;;;3.40;99.90;;;;;;5052204;28;20052;-85
2022/01/20 07:41:46;;;;;;;3.08;0.60;;;3.50;99.90;;;;;;5069371;28;20155;-85
2022/01/20 07:44:12;;;;;;;7.43;1.27;;;3.30;99.90;;;;;;5067849;28;20516;-80
2022/01/20 07:46:38;;;;;;;4.97;0.60;;;3.20;99.90;;;;;;5050029;28;20041;-84
2022/01/20 07:49:04;;;;;;;6.38;0.70;;;3.20;99.90;;;;;;5066323;28;20127;-81
2022/01/20 07:51:30;;;;;;;3.33;0.75;;;3.10;99.90;;;;;;5072090;28;20048;-85
2022/01/20 07:53:56;;;;;;;6.13;0.57;;;3.10;99.90;;;;;;5050618;28;20389;-82
2022/01/20 07:56:21;;;;;;;8.02;1.58;;;3.00;99.90;;;;;;5067187;28;20053;-83
2022/01/20 07:58:47;;;;;;;9.55;1.00;;;3.00;99.90;;;;;;5066174;28;20460;-87
2022/01/20 08:01:13;;;;;;;17.65;1.55;;;3.00;99.90;;;;;;5060728;28;20041;-86
2022/01/20 08:03:39;;;;;;;21.27;1.48;;;3.00;99.90;;;;;;5062510;28;20044;-87
2022/01/20 08:06:05;;;;;;;24.23;2.53;;;3.20;99.90;;;;;;5069209;28;20036;-86
2022/01/20 08:08:30;;;;;;;14.65;1.17;;;3.20;99.90;;;;;;5069619;28;20059;-86
2022/01/20 08:10:56;;;;;;;9.27;1.67;;;3.30;99.90;;;;;;5052585;28;20032;-85
2022/01/20 08:13:21;;;;;;;15.45;1.85;;;3.40;99.90;;;;;;5069843;28;20051;-81
2022/01/20 08:15:47;;;;;;;15.98;2.03;;;3.30;99.90;;;;;;5067963;28;20088;-83
2022/01/20 08:18:13;;;;;;;11.50;1.40;;;3.60;99.90;;;;;;5068325;28;20147;-86
2022/01/20 08:20:39;;;;;;;9.05;1.20;;;3.70;99.90;;;;;;5065752;28;20500;-86
2022/01/20 08:23:05;;;;;;;10.55;0.88;;;3.70;99.90;;;;;;5044027;28;20111;-85
2022/01/20 08:25:32;;;;;;;10.32;1.05;;;4.20;99.90;;;;;;5066834;28;20036;-81
2022/01/20 08:27:57;;;;;;;9.75;1.23;;;3.60;99.90;;;;;;5057249;28;20063;-84
2022/01/20 08:30:25;;;;;;;10.45;1.02;;;3.70;99.90;;;;;;5053446;28;20053;-85
2022/01/20 08:32:52;;;;;;;4.38;1.20;;;3.50;99.90;;;;;;5062312;28;20067;-87
2022/01/20 08:35:20;;;;;;;11.50;1.05;;;3.40;99.90;;;;;;5060310;28;20489;-85
2022/01/20 08:37:46;;;;;;;16.00;1.38;;;3.60;99.90;;;;;;5050532;28;20133;-87
2022/01/20 08:40:15;;;;;;;7.03;0.60;;;3.60;99.90;;;;;;5053535;28;20079;-88
2022/01/20 08:42:42;;;;;;;9.23;0.73;;;3.80;99.90;;;;;;5068945;28;20745;-88
2022/01/20 08:45:11;;;;;;;8.30;0.82;;;3.90;99.90;;;;;;5054064;28;20165;-85
2022/01/20 08:47:38;;;;;;;6.10;1.10;;;4.20;99.90;;;;;;5069847;28;20048;-83
2022/01/20 08:50:05;;;;;;;5.30;0.70;;;4.80;99.90;;;;;;5072311;28;20121;-87
2022/01/20 08:52:31;;;;;;;2.00;0.75;;;4.10;99.90;;;;;;5069908;28;20037;-84
2022/01/20 08:54:58;;;;;;;6.10;0.60;;;3.90;99.90;;;;;;5071604;28;20480;-86
2022/01/20 08:57:28;;;;;;;5.78;0.80;;;3.90;99.90;;;;;;5066229;28;20041;-87
2022/01/20 08:59:55;;;;;;;2.40;0.50;;;4.80;99.90;;;;;;5049031;28;20079;-87
2022/01/20 09:02:21;;;;;;;4.25;0.60;;;4.00;99.90;;;;;;5065240;28;20127;-86
2022/01/20 09:04:47;;;;;;;9.00;0.98;;;3.70;99.90;;;;;;5053033;28;20036;-84
2022/01/20 09:07:14;;;;;;;4.43;0.60;;;3.60;99.90;;;;;;5053685;28;20032;-85
2022/01/20 09:09:42;;;;;;;7.00;0.73;;;3.60;99.90;;;;;;5069329;28;20040;-82
2022/01/20 09:17:20;;;;;;;18.83;1.75;;;4.10;99.90;;;;;;5069743;28;20048;-77
2022/01/20 09:19:46;;;;;;;12.60;1.17;;;4.90;99.90;;;;;;5064718;28;20041;-86
2022/01/20 09:22:12;;;;;;;13.05;1.58;;;4.00;99.90;;;;;;5070823;28;20067;-81
2022/01/20 09:24:39;;;;;;;11.75;1.00;;;3.90;99.90;;;;;;5052912;28;20047;-84
2022/01/20 09:27:04;;;;;;;15.55;1.58;;;3.70;99.90;;;;;;5071229;28;20080;-83
2022/01/20 09:29:30;;;;;;;8.80;1.08;;;3.60;99.90;;;;;;5066876;28;20090;-81
2022/01/20 09:31:57;;;;;;;10.15;1.27;;;3.70;99.90;;;;;;5049895;28;20053;-87
2022/01/20 09:34:24;;;;;;;7.57;1.05;;;3.90;99.90;;;;;;5067635;28;20091;-90
2022/01/20 09:36:50;;;;;;;6.40;1.02;;;3.80;99.90;;;;;;5051200;28;20463;-84
2022/01/20 09:39:16;;;;;;;15.18;1.77;;;3.90;99.90;;;;;;5052499;28;20048;-77
2022/01/20 09:41:43;;;;;;;11.40;0.93;;;4.00;99.90;;;;;;5053867;28;20044;-77
2022/01/20 09:44:09;;;;;;;5.65;1.00;;;4.70;99.90;;;;;;5054268;28;20408;-77
2022/01/20 09:46:35;;;;;;;10.63;1.38;;;4.60;99.90;;;;;;5071197;28;20044;-80
2022/01/20 09:49:00;;;;;;;15.55;1.33;;;4.80;99.90;;;;;;5048143;28;20371;-79
2022/01/20 09:51:26;;;;;;;5.90;1.20;;;4.40;99.90;;;;;;5070064;28;20051;-79
2022/01/20 09:53:52;;;;;;;4.88;0.98;;;4.40;99.90;;;;;;5069754;28;20098;-77
2022/01/20 09:56:18;;;;;;;22.50;1.67;;;4.30;99.90;;;;;;5069356;28;20071;-78
2022/01/20 09:58:45;;;;;;;11.38;1.80;;;4.30;99.90;;;;;;5044290;28;20128;-87
2022/01/20 10:01:11;;;;;;;4.13;0.90;;;4.40;99.90;;;;;;5055807;28;20419;-77
2022/01/20 10:03:38;;;;;;;11.15;1.08;;;4.50;99.90;;;;;;5049102;28;20051;-76
2022/01/20 10:06:05;;;;;;;5.53;1.10;;;4.50;99.90;;;;;;5073824;28;20047;-77
2022/01/20 10:08:32;;;;;;;16.80;1.15;;;4.50;99.90;;;;;;5040060;28;20066;-76
2022/01/20 10:11:00;;;;;;;13.10;1.45;;;4.60;99.90;;;;;;5056617;28;20082;-77
2022/01/20 10:13:32;;;;;;;7.85;1.15;;;4.70;99.90;;;;;;5073895;28;20032;-78
2022/01/20 10:16:08;;;;;;;9.73;1.40;;;4.70;99.90;;;;;;5064183;28;20038;-77
2022/01/20 10:18:46;;;;;;;11.18;1.10;;;4.70;99.90;;;;;;5070046;28;20067;-76
2022/01/20 10:21:13;;;;;;;6.13;1.17;;;4.80;99.90;;;;;;5048431;28;20044;-77
2022/01/20 10:23:42;;;;;;;4.50;0.70;;;4.70;99.90;;;;;;5058926;28;20047;-76
2022/01/20 10:26:23;;;;;;;4.72;0.70;;;4.40;99.90;;;;;;5064188;28;20115;-84
2022/01/20 10:29:00;;;;;;;4.72;0.50;;;4.30;99.90;;;;;;5047669;28;20045;-77
2022/01/20 10:31:34;;;;;;;8.75;1.85;;;4.10;99.90;;;;;;5038621;28;20508;-77
2022/01/20 10:34:02;;;;;;;6.00;1.10;;;4.10;99.90;;;;;;5027643;28;20052;-77
2022/01/20 10:36:27;;;;;;;12.63;0.98;;;4.20;99.90;;;;;;5044815;28;20044;-77
2022/01/20 10:38:57;;;;;;;9.73;0.95;;;4.40;99.90;;;;;;5044884;28;20481;-77
2022/01/20 10:41:27;;;;;;;12.88;1.17;;;4.60;99.90;;;;;;5043031;28;20045;-78
2022/01/20 10:44:06;;;;;;;5.63;0.82;;;4.40;99.90;;;;;;5042553;28;20046;-77
2022/01/20 10:46:47;;;;;;;7.13;1.08;;;4.30;99.90;;;;;;5035287;28;20043;-87
2022/01/20 10:49:13;;;;;;;14.25;1.33;;;4.30;99.90;;;;;;5050384;28;20121;-85
2022/01/20 10:51:39;;;;;;;9.65;1.08;;;4.20;99.90;;;;;;5057311;28;20041;-82
2022/01/20 10:54:09;;;;;;;15.70;1.45;;;4.20;99.90;;;;;;5053135;28;20484;-88
2022/01/20 10:56:55;;;;;;;12.25;1.90;;;4.20;99.90;;;;;;5041655;28;20466;-85
2022/01/20 10:59:22;;;;;;;5.97;1.10;;;4.30;99.90;;;;;;5042817;28;20048;-90
2022/01/20 11:02:08;;;;;;;9.35;1.15;;;4.20;99.90;;;;;;5045831;28;20038;-86
2022/01/20 11:04:36;;;;;;;8.23;0.63;;;4.40;99.90;;;;;;5041965;28;20436;-87
2022/01/20 11:07:05;;;;;;;6.72;1.10;;;4.40;99.90;;;;;;5047461;28;20033;-87
2022/01/20 11:09:35;;;;;;;7.60;1.10;;;4.40;99.90;;;;;;5049706;28;20045;-89
2022/01/20 11:12:02;;;;;;;9.05;1.00;;;5.20;99.90;;;;;;5055163;28;20051;-88
2022/01/20 11:14:30;;;;;;;10.73;0.90;;;4.60;99.90;;;;;;5048134;28;20045;-89
2022/01/20 11:16:57;;;;;;;10.85;0.90;;;4.70;99.90;;;;;;5045701;28;20033;-88
2022/01/20 11:19:23;;;;;;;5.85;0.90;;;4.80;99.90;;;;;;5035069;28;20119;-89
2022/01/20 11:21:49;;;;;;;13.18;2.13;;;4.90;99.90;;;;;;5044377;28;20040;-84
2022/01/20 11:24:24;;;;;;;11.70;1.45;;;4.80;99.90;;;;;;5034498;28;20044;-87
2022/01/20 11:26:59;;;;;;;8.32;1.73;;;5.00;99.90;;;;;;5056965;28;20045;-88
2022/01/20 11:29:43;;;;;;;11.23;1.52;;;5.40;99.90;;;;;;5045345;28;20041;-86
2022/01/20 11:32:16;;;;;;;5.53;0.73;;;5.20;99.90;;;;;;5035128;28;20053;-91
2022/01/20 11:34:57;;;;;;;9.93;1.00;;;5.30;99.90;;;;;;5052270;28;20044;-80
2022/01/20 11:37:23;;;;;;;10.15;1.00;;;5.20;99.90;;;;;;5028741;28;20359;-83
2022/01/20 11:39:52;;;;;;;15.65;1.35;;;6.10;99.90;;;;;;5053175;28;20037;-77
2022/01/20 11:42:25;;;;;;;9.75;1.25;;;5.30;99.90;;;;;;5048590;28;20072;-82
2022/01/20 11:44:52;;;;;;;16.77;1.38;;;5.30;99.90;;;;;;5034761;28;20048;-81
2022/01/20 11:47:29;;;;;;;15.88;1.58;;;5.30;99.90;;;;;;5052483;28;20039;-81
2022/01/20 11:49:55;;;;;;;13.73;1.30;;;5.70;99.90;;;;;;5052756;28;20040;-80
2022/01/20 11:52:27;;;;;;;8.55;0.93;;;4.70;99.90;;;;;;5052939;28;20491;-84
2022/01/20 11:54:53;;;;;;;6.00;0.70;;;4.60;99.90;;;;;;5052937;28;20527;-79
2022/01/20 11:57:19;;;;;;;4.30;0.47;;;4.50;99.90;;;;;;5050669;28;20112;-81
2022/01/20 11:59:54;;;;;;;3.60;0.60;;;4.40;99.90;;;;;;5052041;28;20127;-83
2022/01/20 12:02:30;;;;;;;3.22;0.50;;;4.40;99.90;;;;;;5072750;28;20041;-88
2022/01/20 12:04:56;;;;;;;6.35;0.70;;;4.20;99.90;;;;;;5073030;28;20036;-86
2022/01/20 12:07:31;;;;;;;6.75;0.50;;;4.10;99.90;;;;;;5071902;28;20029;-81
2022/01/20 12:10:09;;;;;;;4.57;0.75;;;4.00;99.90;;;;;;5069274;28;20045;-81
2022/01/20 12:12:36;;;;;;;6.43;0.60;;;4.20;99.90;;;;;;5048140;28;20040;-80
2022/01/20 12:15:08;;;;;;;7.30;0.75;;;4.20;99.90;;;;;;5071429;28;20032;-83
2022/01/20 12:17:36;;;;;;;7.75;1.08;;;4.30;99.90;;;;;;5066266;28;20040;-80
2022/01/20 12:20:03;;;;;;;8.30;1.02;;;4.40;99.90;;;;;;5072265;28;20076;-82
2022/01/20 12:22:29;;;;;;;9.38;1.10;;;4.80;99.90;;;;;;5063254;28;20090;-86
2022/01/20 12:24:57;;;;;;;6.22;1.15;;;5.10;99.90;;;;;;5072056;28;20038;-81
2022/01/20 12:27:25;;;;;;;12.00;1.73;;;5.00;99.90;;;;;;5053813;28;20060;-84
2022/01/20 12:29:51;;;;;;;13.45;2.30;;;5.00;99.90;;;;;;5071392;28;20052;-86
2022/01/20 12:32:21;;;;;;;7.20;0.95;;;5.20;99.90;;;;;;5062162;28;20495;-78
2022/01/20 12:35:02;;;;;;;16.17;1.00;;;5.20;99.90;;;;;;5062232;28;20380;-79
2022/01/20 12:37:39;;;;;;;9.57;0.80;;;5.20;99.90;;;;;;5058671;28;20500;-78
2022/01/20 12:40:07;;;;;;;10.05;1.10;;;5.20;99.90;;;;;;5067055;28;20051;-78
2022/01/20 12:42:35;;;;;;;8.23;1.55;;;5.20;99.90;;;;;;5059213;28;20175;-79
2022/01/20 12:45:05;;;;;;;10.98;1.77;;;5.40;99.90;;;;;;5057528;28;20041;-79
2022/01/20 12:47:31;;;;;;;14.02;1.10;;;5.40;99.90;;;;;;5048907;28;20095;-78
2022/01/20 12:49:59;;;;;;;9.82;2.17;;;6.20;99.90;;;;;;5043263;28;20440;-81
2022/01/20 12:52:25;;;;;;;7.60;1.20;;;5.30;99.90;;;;;;5055910;28;20122;-83
2022/01/20 12:54:51;;;;;;;13.57;1.33;;;5.90;99.90;;;;;;5053108;28;20509;-79
2022/01/20 12:57:18;;;;;;;15.15;1.10;;;5.40;99.90;;;;;;5044023;28;20396;-79
2022/01/20 12:59:46;;;;;;;16.17;2.15;;;5.50;99.90;;;;;;5053844;28;20041;-83
2022/01/20 13:02:23;;;;;;;7.28;1.20;;;5.60;99.90;;;;;;5051509;28;20104;-80
2022/01/20 13:04:58;;;;;;;13.43;2.03;;;5.90;99.90;;;;;;5060680;28;20396;-80
2022/01/20 13:07:24;;;;;;;8.10;1.23;;;5.70;99.90;;;;;;5042109;28;20048;-79
2022/01/20 13:10:06;;;;;;;10.27;1.27;;;6.00;99.90;;;;;;5061533;28;20041;-80
2022/01/20 13:12:39;;;;;;;6.93;0.85;;;5.20;99.90;;;;;;5054854;28;20045;-81
2022/01/20 13:15:17;;;;;;;9.85;0.90;;;4.90;99.90;;;;;;5049789;28;20083;-79
2022/01/20 13:17:44;;;;;;;6.07;0.70;;;4.80;99.90;;;;;;5042134;28;20237;-80
2022/01/20 13:20:23;;;;;;;3.78;0.75;;;4.80;99.90;;;;;;5044314;28;20055;-79
2022/01/20 13:23:08;;;;;;;2.78;0.65;;;4.70;99.90;;;;;;5061390;28;20044;-78
2022/01/20 13:25:39;;;;;;;6.72;0.60;;;5.10;99.90;;;;;;5033138;28;20527;-81
2022/01/20 13:28:08;;;;;;;5.10;0.85;;;4.70;99.90;;;;;;5032943;28;20041;-79
2022/01/20 13:30:36;;;;;;;11.02;0.68;;;4.70;99.90;;;;;;5056875;28;20061;-84
2022/01/20 13:33:04;;;;;;;6.43;0.80;;;4.80;99.90;;;;;;5051554;28;20077;-82
2022/01/20 13:35:44;;;;;;;8.40;1.20;;;4.90;99.90;;;;;;5037592;28;20167;-83
2022/01/20 13:38:12;;;;;;;8.70;0.90;;;4.90;99.90;;;;;;5029671;28;20045;-79
2022/01/20 13:40:40;;;;;;;7.18;0.68;;;4.90;99.90;;;;;;5054396;28;20048;-80
2022/01/20 13:45:55;;;;;;;6.43;0.80;;;5.20;99.90;;;;;;5054628;28;20045;-82
2022/01/20 13:48:32;;;;;;;5.55;0.88;;;4.70;99.90;;;;;;5054655;28;20059;-80
2022/01/20 13:50:59;;;;;;;7.78;1.27;;;4.50;99.90;;;;;;5056613;28;20037;-79
2022/01/20 13:53:28;;;;;;;8.32;0.98;;;4.60;99.90;;;;;;5036963;28;20069;-82
2022/01/20 13:55:57;;;;;;;9.32;0.60;;;4.60;99.90;;;;;;5019441;28;20055;-82
2022/01/20 13:58:31;;;;;;;7.45;0.80;;;4.70;99.90;;;;;;5055147;28;20131;-83
2022/01/20 14:00:59;;;;;;;15.85;2.42;;;4.80;99.90;;;;;;5039110;28;20045;-81
2022/01/20 14:03:25;;;;;;;14.65;1.55;;;4.90;99.90;;;;;;5036436;28;20041;-84
2022/01/20 14:05:55;;;;;;;11.55;1.92;;;5.90;99.90;;;;;;5034270;28;20043;-82
2022/01/20 14:08:24;;;;;;;8.57;0.90;;;5.10;99.90;;;;;;5047767;28;20111;-79
2022/01/20 14:10:51;;;;;;;6.63;0.80;;;4.70;99.90;;;;;;5054590;28;20037;-79
2022/01/20 14:13:16;;;;;;;6.75;0.63;;;4.90;99.90;;;;;;5054566;28;20120;-81